Time;durP1;ratioP1;P1;durP2;ratioP2;P2;SDS_P1;SDS_P2;PMS_P1;PMS_P2;Temp;Humidity;BMP_temperature;BMP_pressure;BME280_temperature;BME280_humidity;BME280_pressure;Samples;Min_cycle;Max_cycle;Signal;HPM_P1;HPM_P2
2022/01/05 00:00:48;;;;;;;7.45;3.55;;;8.00;99.90;;;;;;5015359;28;20033;-75
2022/01/05 00:03:14;;;;;;;11.13;3.30;;;8.00;99.90;;;;;;5017015;28;20051;-76
2022/01/05 00:05:40;;;;;;;7.93;3.30;;;8.00;99.90;;;;;;5018648;28;20136;-76
2022/01/05 00:08:06;;;;;;;8.73;4.45;;;7.90;99.90;;;;;;5019380;28;20050;-75
2022/01/05 00:10:32;;;;;;;5.05;3.35;;;7.90;99.90;;;;;;5020602;28;20054;-76
2022/01/05 00:12:58;;;;;;;9.50;3.60;;;7.90;99.90;;;;;;5019208;28;20041;-75
2022/01/05 00:15:23;;;;;;;5.43;2.80;;;7.90;99.90;;;;;;5020278;28;20095;-76
2022/01/05 00:17:49;;;;;;;5.65;3.10;;;7.90;99.90;;;;;;5020593;28;20041;-76
2022/01/05 00:20:15;;;;;;;7.45;2.90;;;7.90;99.90;;;;;;5020315;28;20022;-76
2022/01/05 00:22:41;;;;;;;4.80;3.08;;;7.90;99.90;;;;;;5020455;28;20030;-76
2022/01/05 00:25:07;;;;;;;7.75;3.13;;;7.90;99.90;;;;;;5020326;28;20435;-75
2022/01/05 00:27:33;;;;;;;6.50;3.28;;;7.90;99.90;;;;;;5019076;28;20079;-76
2022/01/05 00:29:58;;;;;;;7.28;3.22;;;7.90;99.90;;;;;;5020100;28;20529;-75
2022/01/05 00:32:24;;;;;;;7.60;3.50;;;7.90;99.90;;;;;;5020329;28;20030;-75
2022/01/05 00:34:52;;;;;;;9.90;3.75;;;7.90;99.90;;;;;;5020030;28;20014;-75
2022/01/05 00:37:18;;;;;;;3.80;3.03;;;7.90;99.90;;;;;;5020094;28;20068;-75
2022/01/05 00:39:44;;;;;;;5.97;3.10;;;7.80;99.90;;;;;;5019938;28;20029;-76
2022/01/05 00:42:10;;;;;;;5.68;3.08;;;7.90;99.90;;;;;;5020224;28;20037;-75
2022/01/05 00:44:36;;;;;;;5.55;3.20;;;7.90;99.90;;;;;;5018804;28;20029;-76
2022/01/05 00:47:02;;;;;;;11.20;3.42;;;7.90;99.90;;;;;;5018776;28;20390;-75
2022/01/05 00:49:28;;;;;;;11.70;3.50;;;7.90;99.90;;;;;;5019860;28;20049;-75
2022/01/05 00:51:54;;;;;;;6.00;3.30;;;7.90;99.90;;;;;;5019908;28;20030;-75
2022/01/05 00:54:19;;;;;;;6.32;3.45;;;7.90;99.90;;;;;;5019581;28;20030;-75
2022/01/05 00:56:45;;;;;;;6.05;3.08;;;7.80;99.90;;;;;;5018263;28;20438;-75
2022/01/05 00:59:11;;;;;;;5.15;2.78;;;7.80;99.90;;;;;;5019269;28;20398;-75
2022/01/05 01:01:36;;;;;;;8.80;3.30;;;7.90;99.90;;;;;;5018571;28;20030;-76
2022/01/05 01:04:03;;;;;;;6.43;3.22;;;7.80;99.90;;;;;;5019511;28;20614;-75
2022/01/05 01:06:30;;;;;;;5.80;3.05;;;7.80;99.90;;;;;;5019669;28;20133;-75
2022/01/05 01:08:56;;;;;;;5.22;3.20;;;7.80;99.90;;;;;;5019421;28;20042;-76
2022/01/05 01:11:22;;;;;;;6.93;3.47;;;7.80;99.90;;;;;;5019321;28;20033;-76
2022/01/05 01:13:48;;;;;;;3.92;3.53;;;7.80;99.90;;;;;;5019044;28;20110;-75
2022/01/05 01:16:13;;;;;;;3.35;2.80;;;7.80;99.90;;;;;;5017802;28;20037;-75
2022/01/05 01:18:39;;;;;;;8.30;3.80;;;7.80;99.90;;;;;;5019462;28;20053;-75
2022/01/05 01:21:05;;;;;;;9.85;2.95;;;7.80;99.90;;;;;;5019524;28;20028;-75
2022/01/05 01:23:31;;;;;;;5.07;3.00;;;7.80;99.90;;;;;;5019183;28;20026;-76
2022/01/05 01:25:56;;;;;;;5.03;2.83;;;7.80;99.90;;;;;;5019100;28;20524;-75
2022/01/05 01:28:24;;;;;;;4.20;3.10;;;7.80;99.90;;;;;;5018779;28;20041;-76
2022/01/05 01:30:49;;;;;;;5.30;3.30;;;7.80;99.90;;;;;;5019326;28;20447;-76
2022/01/05 01:33:16;;;;;;;6.85;3.20;;;7.80;99.90;;;;;;5019250;28;20034;-76
2022/01/05 01:35:41;;;;;;;4.30;3.05;;;7.80;99.90;;;;;;5017605;28;20061;-75
2022/01/05 01:38:07;;;;;;;6.68;3.78;;;7.80;99.90;;;;;;5018883;28;20033;-76
2022/01/05 01:40:34;;;;;;;15.75;7.38;;;7.80;99.90;;;;;;5019116;28;20033;-75
2022/01/05 01:42:59;;;;;;;6.93;2.88;;;7.80;99.90;;;;;;5018673;28;20469;-76
2022/01/05 01:45:26;;;;;;;10.32;3.13;;;7.80;99.90;;;;;;5018684;28;20022;-75
2022/01/05 01:47:51;;;;;;;8.90;4.95;;;7.80;99.90;;;;;;5017748;28;20026;-76
2022/01/05 01:50:17;;;;;;;4.25;2.83;;;7.80;99.90;;;;;;5017432;28;20048;-76
2022/01/05 01:52:43;;;;;;;2.58;2.33;;;7.80;99.90;;;;;;5018614;28;20035;-76
2022/01/05 01:55:11;;;;;;;6.43;2.88;;;7.80;99.90;;;;;;5018857;28;20485;-75
2022/01/05 01:57:41;;;;;;;7.50;3.55;;;7.80;99.90;;;;;;5018436;28;20029;-75
2022/01/05 02:00:08;;;;;;;6.28;2.33;;;7.80;99.90;;;;;;5018393;28;20021;-75
2022/01/05 02:02:34;;;;;;;7.88;3.45;;;7.80;99.90;;;;;;5018293;28;20029;-75
2022/01/05 02:04:59;;;;;;;10.65;3.30;;;7.90;99.90;;;;;;5017209;28;20018;-75
2022/01/05 02:07:26;;;;;;;7.00;3.05;;;7.90;99.90;;;;;;5018360;28;20029;-76
2022/01/05 02:09:52;;;;;;;13.02;4.55;;;7.80;99.90;;;;;;5018202;28;20449;-75
2022/01/05 02:12:17;;;;;;;11.50;3.60;;;7.80;99.90;;;;;;5016725;28;20033;-76
2022/01/05 02:14:43;;;;;;;8.88;3.30;;;7.80;99.90;;;;;;5016808;28;20058;-75
2022/01/05 02:17:20;;;;;;;9.40;3.45;;;7.80;99.90;;;;;;5018096;28;20102;-75
2022/01/05 02:19:46;;;;;;;10.45;4.15;;;7.70;99.90;;;;;;5016841;28;20030;-76
2022/01/05 02:22:11;;;;;;;12.27;3.58;;;7.70;99.90;;;;;;5016711;28;20029;-75
2022/01/05 02:24:37;;;;;;;8.23;3.45;;;7.70;99.90;;;;;;5018101;28;20541;-75
2022/01/05 02:27:04;;;;;;;13.10;4.35;;;7.70;99.90;;;;;;5015865;28;20038;-75
2022/01/05 02:29:30;;;;;;;8.90;4.07;;;7.70;99.90;;;;;;5017823;28;20010;-75
2022/01/05 02:31:59;;;;;;;11.57;3.88;;;7.70;99.90;;;;;;5017846;28;20079;-75
2022/01/05 02:34:25;;;;;;;19.35;3.60;;;7.70;99.90;;;;;;5016735;28;20067;-75
2022/01/05 02:36:50;;;;;;;15.77;4.47;;;7.60;99.90;;;;;;5016452;28;20105;-75
2022/01/05 02:39:16;;;;;;;18.10;3.75;;;7.60;99.90;;;;;;5018150;28;20022;-74
2022/01/05 02:41:42;;;;;;;13.20;3.70;;;7.50;99.90;;;;;;5016248;28;20030;-74
2022/01/05 02:44:08;;;;;;;15.85;4.72;;;7.50;99.90;;;;;;5016554;28;20483;-75
2022/01/05 02:46:34;;;;;;;17.40;4.22;;;7.50;99.90;;;;;;5016337;28;20050;-75
2022/01/05 02:49:02;;;;;;;10.38;3.90;;;7.50;99.90;;;;;;5016492;28;20026;-75
2022/01/05 02:51:28;;;;;;;9.68;3.70;;;7.50;99.90;;;;;;5017789;28;20086;-75
2022/01/05 02:53:54;;;;;;;13.80;5.40;;;7.50;99.90;;;;;;5017712;28;20132;-75
2022/01/05 02:56:20;;;;;;;13.63;4.13;;;7.50;99.90;;;;;;5016127;28;20041;-75
2022/01/05 02:58:46;;;;;;;12.13;3.85;;;7.60;99.90;;;;;;5016171;28;20033;-75
2022/01/05 03:01:12;;;;;;;23.23;4.75;;;7.60;99.90;;;;;;5017503;28;20553;-75
2022/01/05 03:03:38;;;;;;;20.73;4.72;;;7.60;99.90;;;;;;5016459;28;20025;-74
2022/01/05 03:06:04;;;;;;;13.48;3.70;;;7.60;99.90;;;;;;5017411;28;20575;-75
2022/01/05 03:08:29;;;;;;;19.45;4.18;;;7.60;99.90;;;;;;5016092;28;20037;-75
2022/01/05 03:10:55;;;;;;;10.57;3.28;;;7.50;99.90;;;;;;5017722;28;20021;-75
2022/01/05 03:13:23;;;;;;;8.63;4.65;;;7.50;99.90;;;;;;5017175;28;20097;-75
2022/01/05 03:15:50;;;;;;;6.22;3.67;;;7.40;99.90;;;;;;5017373;28;20056;-76
2022/01/05 03:18:16;;;;;;;9.73;3.42;;;7.40;99.90;;;;;;5016078;28;20474;-76
2022/01/05 03:20:42;;;;;;;9.70;3.67;;;7.30;99.90;;;;;;5017238;28;20034;-76
2022/01/05 03:23:08;;;;;;;6.07;2.90;;;7.30;99.90;;;;;;5017359;28;20026;-76
2022/01/05 03:25:34;;;;;;;7.30;3.05;;;7.20;99.90;;;;;;5015840;28;20057;-75
2022/01/05 03:28:00;;;;;;;6.10;3.40;;;7.20;99.90;;;;;;5017306;28;20517;-76
2022/01/05 03:30:29;;;;;;;3.85;2.67;;;7.20;99.90;;;;;;5016873;28;20026;-76
2022/01/05 03:35:25;;;;;;;11.68;4.10;;;7.20;99.90;;;;;;5017307;28;20194;-75
2022/01/05 03:37:51;;;;;;;7.90;3.10;;;7.20;99.90;;;;;;5017489;28;20022;-76
2022/01/05 03:40:17;;;;;;;8.15;3.20;;;7.10;99.90;;;;;;5020936;28;20101;-75
2022/01/05 03:42:42;;;;;;;5.90;3.30;;;7.10;99.90;;;;;;5020868;28;20030;-76
2022/01/05 03:45:08;;;;;;;9.52;3.05;;;7.20;99.90;;;;;;5020806;28;20026;-75
2022/01/05 03:47:34;;;;;;;5.25;3.05;;;7.20;99.90;;;;;;5020565;28;20467;-75
2022/01/05 03:50:00;;;;;;;9.35;3.45;;;7.20;99.90;;;;;;5020352;28;20076;-75
2022/01/05 03:52:26;;;;;;;5.57;3.60;;;7.20;99.90;;;;;;5020346;28;20022;-76
2022/01/05 03:54:51;;;;;;;11.10;3.80;;;7.20;99.90;;;;;;5020260;28;20033;-75
2022/01/05 03:57:17;;;;;;;10.20;3.42;;;7.20;99.90;;;;;;5020218;28;20029;-75
2022/01/05 03:59:43;;;;;;;6.53;3.60;;;7.20;99.90;;;;;;5019777;28;20022;-76
2022/01/05 04:02:09;;;;;;;9.52;3.30;;;7.20;99.90;;;;;;5019838;28;20033;-76
2022/01/05 04:04:34;;;;;;;7.55;3.70;;;7.20;99.90;;;;;;5052139;28;20030;-76
2022/01/05 04:07:00;;;;;;;8.45;4.03;;;7.20;99.90;;;;;;5019986;28;20022;-76
2022/01/05 04:09:26;;;;;;;5.80;4.60;;;7.20;99.90;;;;;;5019710;28;20041;-76
2022/01/05 04:11:52;;;;;;;5.00;3.10;;;7.20;99.90;;;;;;5051671;28;20018;-76
2022/01/05 04:14:17;;;;;;;9.27;3.50;;;7.20;99.90;;;;;;5051719;28;20022;-76
2022/01/05 04:16:44;;;;;;;7.28;3.22;;;7.20;99.90;;;;;;5051672;28;20045;-76
2022/01/05 04:19:10;;;;;;;5.28;3.47;;;7.20;99.90;;;;;;5047302;28;20553;-77
2022/01/05 04:21:36;;;;;;;7.35;3.42;;;7.20;99.90;;;;;;5015138;28;20034;-75
2022/01/05 04:24:02;;;;;;;8.88;3.30;;;7.20;99.90;;;;;;5019231;28;20398;-76
2022/01/05 04:26:27;;;;;;;7.40;3.17;;;7.30;99.90;;;;;;5019362;28;20026;-76
2022/01/05 04:28:53;;;;;;;4.28;3.60;;;7.30;99.90;;;;;;5051519;28;20022;-76
2022/01/05 04:31:19;;;;;;;8.07;4.10;;;7.20;99.90;;;;;;5051321;28;20107;-76
2022/01/05 04:33:45;;;;;;;7.70;3.53;;;7.20;99.90;;;;;;5018299;28;20397;-76
2022/01/05 04:36:10;;;;;;;7.18;3.40;;;7.20;99.90;;;;;;5019421;28;20036;-76
2022/01/05 04:38:36;;;;;;;4.70;3.03;;;7.20;99.90;;;;;;5019738;28;20022;-76
2022/01/05 04:41:02;;;;;;;9.80;4.07;;;7.20;99.90;;;;;;5016584;28;20034;-76
2022/01/05 04:43:27;;;;;;;5.95;3.40;;;7.30;99.90;;;;;;5050865;28;20049;-76
2022/01/05 04:45:53;;;;;;;9.05;3.38;;;7.20;99.90;;;;;;5019383;28;20030;-77
2022/01/05 04:48:19;;;;;;;7.80;3.30;;;7.20;99.90;;;;;;5051071;28;20052;-76
2022/01/05 04:50:45;;;;;;;9.88;3.55;;;7.30;99.90;;;;;;5018627;28;20022;-76
2022/01/05 04:53:12;;;;;;;6.55;3.60;;;7.30;99.90;;;;;;5019273;28;20026;-77
2022/01/05 04:55:42;;;;;;;10.02;3.47;;;7.30;99.90;;;;;;5042940;28;20483;-76
2022/01/05 04:58:08;;;;;;;9.27;4.25;;;7.20;99.90;;;;;;5013319;28;20044;-76
2022/01/05 05:00:34;;;;;;;6.63;3.80;;;7.20;99.90;;;;;;5041893;28;20033;-76
2022/01/05 05:03:00;;;;;;;7.45;3.25;;;7.20;99.90;;;;;;5019094;28;20026;-76
2022/01/05 05:05:26;;;;;;;13.13;3.95;;;7.10;99.90;;;;;;5019080;28;20022;-76
2022/01/05 05:07:52;;;;;;;8.05;3.78;;;7.10;99.90;;;;;;5019035;28;20045;-76
2022/01/05 05:10:17;;;;;;;8.30;3.25;;;7.10;99.90;;;;;;5036732;28;20026;-76
2022/01/05 05:12:43;;;;;;;6.68;3.38;;;7.10;99.90;;;;;;5017729;28;20034;-76
2022/01/05 05:15:09;;;;;;;7.50;3.15;;;7.00;99.90;;;;;;5050459;28;20041;-77
2022/01/05 05:17:35;;;;;;;6.35;3.10;;;6.90;99.90;;;;;;5018837;28;20132;-76
2022/01/05 05:20:01;;;;;;;6.45;3.00;;;6.90;99.90;;;;;;5014765;28;20065;-76
2022/01/05 05:22:27;;;;;;;9.85;3.88;;;6.80;99.90;;;;;;5017983;28;20034;-76
2022/01/05 05:24:53;;;;;;;9.98;3.42;;;6.70;99.90;;;;;;5019227;28;20071;-78
2022/01/05 05:27:19;;;;;;;10.23;3.25;;;6.60;99.90;;;;;;5018986;28;20022;-76
2022/01/05 05:29:45;;;;;;;7.10;3.75;;;6.60;99.90;;;;;;5018840;28;20052;-76
2022/01/05 05:32:10;;;;;;;7.60;4.97;;;6.50;99.90;;;;;;5018906;28;20510;-76
2022/01/05 05:34:36;;;;;;;7.72;3.72;;;6.30;99.90;;;;;;5017655;28;21171;-76
2022/01/05 05:37:02;;;;;;;5.80;3.60;;;6.20;99.90;;;;;;5018949;28;20026;-76
2022/01/05 05:39:28;;;;;;;3.85;3.50;;;6.10;99.90;;;;;;5017721;28;20434;-75
2022/01/05 05:41:54;;;;;;;7.72;3.83;;;6.00;99.90;;;;;;5018481;28;20064;-75
2022/01/05 05:44:19;;;;;;;7.75;3.42;;;6.00;99.90;;;;;;5018613;28;20022;-75
2022/01/05 05:46:45;;;;;;;10.63;3.83;;;5.90;99.90;;;;;;5017342;28;20033;-75
2022/01/05 05:49:11;;;;;;;13.38;4.18;;;5.80;99.90;;;;;;5018841;28;20018;-75
2022/01/05 05:51:36;;;;;;;12.35;4.32;;;5.70;99.90;;;;;;5018488;28;20026;-75
2022/01/05 05:54:03;;;;;;;8.77;4.00;;;5.70;99.90;;;;;;5017337;28;20029;-75
2022/01/05 05:56:30;;;;;;;9.68;4.93;;;5.60;99.90;;;;;;5007930;28;20043;-75
2022/01/05 05:58:55;;;;;;;6.25;3.80;;;5.50;99.90;;;;;;5000777;28;20026;-75
2022/01/05 06:01:21;;;;;;;11.73;4.53;;;5.40;99.90;;;;;;5017690;28;20512;-75
2022/01/05 06:03:47;;;;;;;6.63;4.20;;;5.40;99.90;;;;;;5016810;28;20022;-75
2022/01/05 06:06:13;;;;;;;6.50;4.03;;;5.30;99.90;;;;;;5018454;28;20084;-75
2022/01/05 06:08:39;;;;;;;12.80;4.20;;;5.30;99.90;;;;;;5018328;28;20049;-74
2022/01/05 06:11:06;;;;;;;17.08;6.32;;;5.20;99.90;;;;;;5018241;28;20113;-75
2022/01/05 06:13:32;;;;;;;10.32;5.00;;;5.20;99.90;;;;;;5017899;28;20459;-74
2022/01/05 06:15:58;;;;;;;15.40;4.75;;;5.10;99.90;;;;;;5016761;28;20026;-75
2022/01/05 06:18:24;;;;;;;4.50;3.72;;;5.10;99.90;;;;;;5016940;28;20029;-74
2022/01/05 06:20:49;;;;;;;6.28;3.90;;;5.10;99.90;;;;;;5018015;28;20037;-75
2022/01/05 06:23:15;;;;;;;10.63;4.85;;;5.10;99.90;;;;;;5016891;28;20062;-74
2022/01/05 06:25:42;;;;;;;8.70;4.30;;;5.00;99.90;;;;;;5016553;28;20030;-75
2022/01/05 06:28:11;;;;;;;11.43;4.15;;;4.90;99.90;;;;;;5017876;28;20089;-75
2022/01/05 06:30:40;;;;;;;15.82;4.15;;;4.90;99.90;;;;;;5012413;28;20144;-76
2022/01/05 06:33:07;;;;;;;7.07;3.97;;;4.80;99.90;;;;;;5018044;28;20030;-75
2022/01/05 06:35:34;;;;;;;11.50;5.47;;;4.80;99.90;;;;;;5017656;28;20120;-75
2022/01/05 06:38:00;;;;;;;10.13;4.40;;;4.70;99.90;;;;;;5017713;28;20022;-75
2022/01/05 06:40:26;;;;;;;5.97;4.45;;;4.70;99.90;;;;;;5018112;28;20025;-75
2022/01/05 06:42:52;;;;;;;12.82;4.18;;;4.70;99.90;;;;;;5016266;28;20026;-75
2022/01/05 06:45:18;;;;;;;6.13;4.00;;;4.70;99.90;;;;;;5017802;28;20033;-75
2022/01/05 06:47:43;;;;;;;8.38;4.30;;;4.70;99.90;;;;;;5017819;28;20489;-75
2022/01/05 06:50:10;;;;;;;6.03;4.20;;;4.70;99.90;;;;;;5017664;28;20606;-75
2022/01/05 06:52:37;;;;;;;14.02;4.40;;;4.60;99.90;;;;;;5017647;28;20026;-75
2022/01/05 06:55:04;;;;;;;7.82;4.28;;;4.60;99.90;;;;;;5016468;28;20058;-76
2022/01/05 06:57:29;;;;;;;7.57;4.22;;;4.50;99.90;;;;;;5016137;28;20022;-75
2022/01/05 06:59:56;;;;;;;10.52;4.60;;;4.50;99.90;;;;;;5016116;28;20026;-75
2022/01/05 07:02:22;;;;;;;4.43;3.90;;;4.50;99.90;;;;;;5016395;28;20028;-74
2022/01/05 07:04:47;;;;;;;5.63;3.90;;;4.50;99.90;;;;;;5017736;28;20014;-75
2022/01/05 07:07:13;;;;;;;9.80;4.70;;;4.50;99.90;;;;;;5017445;28;20026;-75
2022/01/05 07:09:39;;;;;;;5.68;4.03;;;4.50;99.90;;;;;;5017444;28;20045;-75
2022/01/05 07:12:05;;;;;;;4.15;3.75;;;4.50;99.90;;;;;;5017148;28;20034;-75
2022/01/05 07:14:31;;;;;;;6.35;4.78;;;4.50;99.90;;;;;;5017078;28;20371;-75
2022/01/05 07:16:57;;;;;;;12.98;4.22;;;4.50;99.90;;;;;;5016239;28;20057;-75
2022/01/05 07:19:22;;;;;;;10.35;5.07;;;4.40;99.90;;;;;;5017480;28;20030;-75
2022/01/05 07:21:48;;;;;;;8.98;4.28;;;4.40;99.90;;;;;;5017193;28;20026;-75
2022/01/05 07:24:17;;;;;;;12.70;5.75;;;4.40;99.90;;;;;;5017472;28;20022;-75
2022/01/05 07:26:44;;;;;;;13.35;4.63;;;4.50;99.90;;;;;;5017088;28;20018;-75
2022/01/05 07:29:12;;;;;;;10.60;5.03;;;4.50;99.90;;;;;;5015744;28;20057;-75
2022/01/05 07:31:39;;;;;;;11.63;4.88;;;4.50;99.90;;;;;;5017179;28;20018;-75
2022/01/05 07:34:05;;;;;;;10.52;4.65;;;4.50;99.90;;;;;;5017382;28;20057;-75
2022/01/05 07:36:31;;;;;;;7.57;5.25;;;4.50;99.90;;;;;;5016972;28;20056;-75
2022/01/05 07:38:57;;;;;;;10.15;4.70;;;4.60;99.90;;;;;;5017283;28;20030;-75
2022/01/05 07:41:22;;;;;;;6.68;4.28;;;4.60;99.90;;;;;;5017206;28;20033;-76
2022/01/05 07:43:48;;;;;;;5.53;4.30;;;4.70;99.90;;;;;;5016294;28;20022;-76
2022/01/05 07:46:14;;;;;;;8.73;4.53;;;4.70;99.90;;;;;;5035728;28;20022;-76
2022/01/05 07:48:39;;;;;;;9.30;4.38;;;4.70;99.90;;;;;;5015174;28;20030;-76
2022/01/05 07:51:05;;;;;;;9.48;5.07;;;4.70;99.90;;;;;;5015705;28;20552;-76
2022/01/05 07:53:31;;;;;;;12.82;4.68;;;4.70;99.90;;;;;;5016355;28;20410;-77
2022/01/05 07:55:57;;;;;;;9.65;4.72;;;4.70;99.90;;;;;;5015723;28;20036;-76
2022/01/05 07:58:23;;;;;;;8.20;4.60;;;4.70;99.90;;;;;;5016665;28;20219;-77
2022/01/05 08:00:49;;;;;;;4.00;3.60;;;4.70;99.90;;;;;;5016950;28;20018;-76
2022/01/05 08:03:15;;;;;;;12.82;3.90;;;4.70;99.90;;;;;;5016846;28;20028;-76
2022/01/05 08:05:41;;;;;;;11.80;4.70;;;4.70;99.90;;;;;;5015594;28;20025;-77
2022/01/05 08:08:06;;;;;;;10.07;4.70;;;4.70;99.90;;;;;;5012877;28;20038;-78
2022/01/05 08:10:32;;;;;;;12.65;5.13;;;4.70;99.90;;;;;;5042492;28;20025;-80
2022/01/05 08:12:58;;;;;;;10.23;4.50;;;4.70;99.90;;;;;;5023398;28;20114;-77
2022/01/05 08:15:24;;;;;;;11.25;4.03;;;4.70;99.90;;;;;;5025760;28;20033;-76
2022/01/05 08:17:50;;;;;;;11.73;4.90;;;4.70;99.90;;;;;;5016812;28;20026;-78
2022/01/05 08:20:16;;;;;;;13.73;4.88;;;4.70;99.90;;;;;;5016864;28;20032;-76
2022/01/05 08:22:44;;;;;;;24.83;9.77;;;4.70;99.90;;;;;;5016445;28;20038;-76
2022/01/05 08:25:11;;;;;;;7.03;5.50;;;4.70;99.90;;;;;;5016500;28;20018;-76
2022/01/05 08:27:45;;;;;;;9.93;6.35;;;4.70;99.90;;;;;;5019561;28;20102;-76
2022/01/05 08:30:19;;;;;;;10.63;4.70;;;4.70;99.90;;;;;;5017971;28;20029;-77
2022/01/05 08:32:46;;;;;;;9.48;5.13;;;4.60;99.90;;;;;;5020491;28;20089;-77
2022/01/05 08:35:14;;;;;;;9.80;4.70;;;4.60;99.90;;;;;;5020105;28;20025;-76
2022/01/05 08:37:44;;;;;;;6.70;4.30;;;4.60;99.90;;;;;;5020469;28;20087;-76
2022/01/05 08:40:12;;;;;;;7.78;4.65;;;4.60;99.90;;;;;;5020354;28;20049;-76
2022/01/05 08:42:39;;;;;;;5.43;4.88;;;4.60;99.90;;;;;;5018652;28;20033;-76
2022/01/05 08:45:05;;;;;;;12.02;4.78;;;4.70;99.90;;;;;;5018458;28;20041;-76
2022/01/05 08:47:31;;;;;;;9.70;4.97;;;4.70;99.90;;;;;;5019881;28;20878;-76
2022/01/05 08:49:56;;;;;;;9.43;4.80;;;4.80;99.90;;;;;;5018601;28;20107;-77
2022/01/05 08:52:22;;;;;;;15.77;6.47;;;4.90;99.90;;;;;;5018644;28;20080;-76
2022/01/05 08:54:48;;;;;;;11.27;5.22;;;5.00;99.90;;;;;;5018532;28;20518;-77
2022/01/05 08:57:15;;;;;;;10.65;5.40;;;5.00;99.90;;;;;;5019852;28;20058;-77
2022/01/05 08:59:40;;;;;;;6.10;4.22;;;5.00;99.90;;;;;;5019443;28;20025;-77
2022/01/05 09:02:06;;;;;;;7.80;4.35;;;5.00;99.90;;;;;;5019744;28;20475;-77
2022/01/05 09:04:32;;;;;;;8.45;4.95;;;5.00;99.90;;;;;;5019580;28;20102;-76
2022/01/05 09:06:59;;;;;;;9.27;5.60;;;5.00;99.90;;;;;;5014463;28;20482;-76
2022/01/05 09:09:26;;;;;;;7.32;5.00;;;5.10;99.90;;;;;;5019431;28;20125;-77
2022/01/05 09:11:51;;;;;;;12.25;5.10;;;5.20;99.90;;;;;;5019661;28;20053;-76
2022/01/05 09:14:18;;;;;;;13.85;5.07;;;5.30;99.90;;;;;;5019219;28;20025;-76
2022/01/05 09:16:44;;;;;;;7.63;5.18;;;5.40;99.90;;;;;;5019647;28;20482;-76
2022/01/05 09:19:10;;;;;;;11.18;4.60;;;5.50;99.90;;;;;;5018178;28;20022;-76
2022/01/05 09:21:36;;;;;;;8.95;4.10;;;5.60;99.90;;;;;;5019331;28;20030;-77
2022/01/05 09:24:02;;;;;;;10.57;4.15;;;5.70;99.90;;;;;;5019398;28;20429;-76
2022/01/05 09:26:28;;;;;;;15.55;4.82;;;5.70;99.90;;;;;;5019207;28;20021;-76
2022/01/05 09:28:54;;;;;;;9.50;4.40;;;5.70;99.90;;;;;;5018827;28;20022;-76
2022/01/05 09:31:20;;;;;;;6.97;4.60;;;5.80;99.90;;;;;;5018160;28;20025;-77
2022/01/05 09:33:46;;;;;;;5.78;4.15;;;5.80;99.90;;;;;;5019000;28;20022;-76
2022/01/05 09:36:17;;;;;;;6.32;4.20;;;5.80;99.90;;;;;;5018869;28;20026;-77
2022/01/05 09:44:04;;;;;;;8.45;4.50;;;5.90;99.90;;;;;;5018562;28;20517;-76
2022/01/05 09:46:31;;;;;;;4.95;3.85;;;5.90;99.90;;;;;;5018903;28;20057;-79
2022/01/05 09:49:12;;;;;;;5.78;3.78;;;6.00;99.90;;;;;;5019002;28;20018;-77
2022/01/05 09:51:41;;;;;;;6.13;3.85;;;6.00;99.90;;;;;;5017442;28;20036;-76
2022/01/05 09:54:12;;;;;;;12.15;4.65;;;6.10;99.90;;;;;;5018864;28;20042;-76
2022/01/05 09:56:38;;;;;;;11.23;4.32;;;6.00;99.90;;;;;;5017249;28;20549;-77
2022/01/05 09:59:04;;;;;;;15.48;5.28;;;6.00;99.90;;;;;;5017387;28;20096;-76
2022/01/05 10:01:34;;;;;;;7.43;4.22;;;6.00;99.90;;;;;;5018427;28;20034;-77
2022/01/05 10:04:01;;;;;;;9.32;4.57;;;6.10;99.90;;;;;;5017129;28;20030;-76
2022/01/05 10:06:27;;;;;;;13.95;5.47;;;6.10;99.90;;;;;;5018775;28;20563;-76
2022/01/05 10:08:53;;;;;;;9.75;4.88;;;6.00;99.90;;;;;;5018369;28;20074;-77
2022/01/05 10:11:23;;;;;;;7.22;4.30;;;6.00;99.90;;;;;;5018404;28;20762;-76
2022/01/05 10:13:50;;;;;;;7.53;5.63;;;6.00;99.90;;;;;;5018038;28;20022;-76
2022/01/05 10:16:16;;;;;;;12.05;4.60;;;6.00;99.90;;;;;;5018253;28;20256;-77
2022/01/05 10:18:44;;;;;;;13.98;4.45;;;6.00;99.90;;;;;;5018160;28;20040;-77
2022/01/05 10:21:12;;;;;;;13.32;5.57;;;6.10;99.90;;;;;;5017395;28;20026;-77
2022/01/05 10:23:39;;;;;;;11.77;4.57;;;6.10;99.90;;;;;;5016791;28;20397;-77
2022/01/05 10:26:29;;;;;;;14.30;4.80;;;6.20;99.90;;;;;;5018214;28;20391;-76
2022/01/05 10:29:07;;;;;;;9.47;4.57;;;6.20;99.90;;;;;;5016551;28;20021;-77
2022/01/05 10:31:36;;;;;;;13.93;5.18;;;6.20;99.90;;;;;;5018067;28;20269;-76
2022/01/05 10:34:24;;;;;;;8.50;5.28;;;6.20;99.90;;;;;;5016669;28;20027;-76
2022/01/05 10:36:51;;;;;;;8.88;4.28;;;6.40;99.90;;;;;;5016911;28;20030;-77
2022/01/05 10:39:31;;;;;;;10.30;4.70;;;6.30;99.90;;;;;;5018026;28;20422;-76
2022/01/05 10:42:08;;;;;;;4.10;3.70;;;6.30;99.90;;;;;;5017712;28;20037;-76
2022/01/05 10:44:33;;;;;;;11.80;4.55;;;6.30;99.90;;;;;;5017590;28;20026;-77
2022/01/05 10:47:00;;;;;;;9.32;4.13;;;6.30;99.90;;;;;;5017887;28;20014;-76
2022/01/05 10:49:26;;;;;;;13.30;9.48;;;6.40;99.90;;;;;;5015805;28;20030;-77
2022/01/05 10:51:53;;;;;;;8.25;4.22;;;6.30;99.90;;;;;;5016516;28;20029;-77
2022/01/05 10:54:21;;;;;;;7.35;4.13;;;6.30;99.90;;;;;;5017686;28;20544;-76
2022/01/05 10:56:47;;;;;;;10.13;4.85;;;6.30;99.90;;;;;;5017620;28;20029;-77
2022/01/05 10:59:15;;;;;;;5.78;4.25;;;6.40;99.90;;;;;;5016464;28;20029;-77
2022/01/05 11:01:42;;;;;;;5.63;3.75;;;6.40;99.90;;;;;;5017783;28;20030;-76
2022/01/05 11:04:19;;;;;;;15.77;3.90;;;6.40;99.90;;;;;;5016193;28;20117;-76
2022/01/05 11:07:03;;;;;;;7.25;4.05;;;6.40;99.90;;;;;;5016277;28;20025;-77
2022/01/05 11:09:32;;;;;;;8.45;4.85;;;6.40;99.90;;;;;;5017330;28;20088;-77
2022/01/05 11:11:59;;;;;;;8.43;3.80;;;6.50;99.90;;;;;;5016238;28;20029;-77
2022/01/05 11:14:33;;;;;;;12.43;3.95;;;6.60;99.90;;;;;;5017134;28;20053;-77
2022/01/05 11:17:02;;;;;;;8.90;3.95;;;6.60;99.90;;;;;;5016464;28;20025;-77
2022/01/05 11:19:37;;;;;;;6.38;3.90;;;6.60;99.90;;;;;;5017779;28;20025;-76
2022/01/05 11:22:07;;;;;;;6.28;3.95;;;6.70;99.90;;;;;;5017252;28;20049;-77
2022/01/05 11:24:45;;;;;;;8.82;3.88;;;6.70;99.90;;;;;;5016131;28;20026;-77
2022/01/05 11:27:27;;;;;;;9.95;4.38;;;6.80;99.90;;;;;;5016130;28;20072;-77
2022/01/05 11:29:53;;;;;;;5.47;3.17;;;6.90;99.90;;;;;;5015813;28;20030;-79
2022/01/05 11:32:23;;;;;;;8.32;3.22;;;6.90;99.90;;;;;;5017394;28;20057;-76
2022/01/05 11:34:50;;;;;;;9.65;4.13;;;6.80;99.90;;;;;;5017206;28;20108;-76
2022/01/05 11:37:16;;;;;;;8.65;3.80;;;6.90;99.90;;;;;;5003205;28;20030;-77
2022/01/05 11:39:47;;;;;;;9.93;3.90;;;6.90;99.90;;;;;;5017411;28;20033;-77
2022/01/05 11:42:18;;;;;;;9.52;4.32;;;6.90;99.90;;;;;;5016046;28;20034;-77
2022/01/05 11:44:54;;;;;;;8.27;3.75;;;7.00;99.90;;;;;;5015571;28;20026;-77
2022/01/05 11:47:31;;;;;;;9.07;3.95;;;7.10;99.90;;;;;;5017303;28;20042;-76
2022/01/05 11:50:24;;;;;;;11.80;4.18;;;7.10;99.90;;;;;;5017234;28;20060;-79
2022/01/05 11:53:00;;;;;;;11.13;4.65;;;7.20;99.90;;;;;;5017217;28;20030;-79
2022/01/05 11:55:30;;;;;;;10.18;4.07;;;7.20;99.90;;;;;;5017255;28;20026;-79
2022/01/05 11:58:17;;;;;;;8.48;4.45;;;7.30;99.90;;;;;;5016542;28;20025;-79
2022/01/05 12:00:45;;;;;;;8.40;4.00;;;7.20;99.90;;;;;;5020359;28;20026;-76
2022/01/05 12:03:11;;;;;;;6.28;3.83;;;7.10;99.90;;;;;;5020961;28;20486;-79
2022/01/05 12:06:02;;;;;;;11.95;4.25;;;7.00;99.90;;;;;;5020691;28;20935;-79
2022/01/05 12:08:49;;;;;;;12.45;4.80;;;7.00;99.90;;;;;;5020742;28;20050;-76
2022/01/05 12:11:29;;;;;;;13.13;3.63;;;6.90;99.90;;;;;;5020736;28;20026;-79
2022/01/05 12:13:59;;;;;;;14.80;4.28;;;6.90;99.90;;;;;;5020308;28;20449;-77
2022/01/05 12:16:25;;;;;;;11.77;5.30;;;6.80;99.90;;;;;;5020840;28;20022;-76
2022/01/05 12:19:14;;;;;;;15.43;4.93;;;6.80;99.90;;;;;;5020293;28;20149;-76
2022/01/05 12:21:43;;;;;;;13.98;4.80;;;6.70;99.90;;;;;;5020562;28;20029;-77
2022/01/05 12:24:09;;;;;;;9.80;4.22;;;6.70;99.90;;;;;;5020294;28;20037;-76
2022/01/05 12:26:34;;;;;;;10.93;4.82;;;6.80;99.90;;;;;;5020361;28;20026;-76
2022/01/05 12:29:00;;;;;;;10.68;3.80;;;6.80;99.90;;;;;;5020148;28;20018;-77
2022/01/05 12:31:45;;;;;;;9.90;4.60;;;6.80;99.90;;;;;;5020325;28;20105;-76
2022/01/05 12:34:10;;;;;;;9.43;4.10;;;6.80;99.90;;;;;;5018913;28;20108;-79
2022/01/05 12:36:38;;;;;;;8.90;4.03;;;6.80;99.90;;;;;;5019998;28;20072;-76
2022/01/05 12:39:08;;;;;;;16.10;4.90;;;6.80;99.90;;;;;;5020350;28;20025;-76
2022/01/05 12:41:37;;;;;;;5.72;3.50;;;6.90;99.90;;;;;;5020025;28;20438;-77
2022/01/05 12:44:30;;;;;;;10.13;5.18;;;6.90;99.90;;;;;;5019817;28;20034;-77
2022/01/05 12:46:57;;;;;;;9.52;4.00;;;6.90;99.90;;;;;;5020244;28;20017;-77
2022/01/05 12:49:27;;;;;;;15.68;3.92;;;6.80;99.90;;;;;;5019926;28;20537;-77
2022/01/05 12:52:15;;;;;;;9.10;4.32;;;6.80;99.90;;;;;;5018662;28;20026;-77
2022/01/05 12:54:47;;;;;;;7.03;4.05;;;6.90;99.90;;;;;;5020034;28;20025;-77
2022/01/05 12:57:25;;;;;;;10.82;5.07;;;7.00;99.90;;;;;;5018430;28;20034;-77
2022/01/05 12:59:52;;;;;;;10.57;4.13;;;7.00;99.90;;;;;;5019555;28;20052;-77
2022/01/05 13:02:27;;;;;;;14.40;5.20;;;7.10;99.90;;;;;;5019627;28;20026;-77